sensor_id;sensor_type;location;lat;lon;timestamp;pressure;altitude;pressure_sealevel;temperature;humidity
81057;BME280;70563;50.084;14.468;2023-12-14T00:01:45;97443.94;;;6.21;95.60
81057;BME280;70563;50.084;14.468;2023-12-14T00:04:11;97446.28;;;6.31;95.55
81057;BME280;70563;50.084;14.468;2023-12-14T00:06:37;97453.03;;;6.40;95.09
81057;BME280;70563;50.084;14.468;2023-12-14T00:09:02;97453.75;;;6.34;95.21
81057;BME280;70563;50.084;14.468;2023-12-14T00:11:28;97450.28;;;6.48;95.19
81057;BME280;70563;50.084;14.468;2023-12-14T00:13:53;97447.72;;;6.33;94.37
81057;BME280;70563;50.084;14.468;2023-12-14T00:16:18;97452.25;;;6.24;95.63
81057;BME280;70563;50.084;14.468;2023-12-14T00:18:44;97451.13;;;6.34;95.43
81057;BME280;70563;50.084;14.468;2023-12-14T00:21:09;97448.06;;;6.30;94.91
81057;BME280;70563;50.084;14.468;2023-12-14T00:23:34;97457.06;;;6.21;95.90
81057;BME280;70563;50.084;14.468;2023-12-14T00:26:00;97464.69;;;6.37;95.48
81057;BME280;70563;50.084;14.468;2023-12-14T00:28:25;97470.63;;;6.46;93.11
81057;BME280;70563;50.084;14.468;2023-12-14T00:30:51;97466.66;;;6.14;94.21
81057;BME280;70563;50.084;14.468;2023-12-14T00:33:17;97463.59;;;6.10;95.58
81057;BME280;70563;50.084;14.468;2023-12-14T00:35:42;97471.34;;;6.18;95.46
81057;BME280;70563;50.084;14.468;2023-12-14T00:38:07;97472.06;;;6.12;95.77
81057;BME280;70563;50.084;14.468;2023-12-14T00:40:33;97482.41;;;5.99;95.51
81057;BME280;70563;50.084;14.468;2023-12-14T00:42:58;97487.03;;;5.97;96.16
81057;BME280;70563;50.084;14.468;2023-12-14T00:45:23;97483.97;;;5.93;96.82
81057;BME280;70563;50.084;14.468;2023-12-14T00:47:49;97486.75;;;5.77;97.99
81057;BME280;70563;50.084;14.468;2023-12-14T00:50:14;97498.13;;;5.84;97.78
81057;BME280;70563;50.084;14.468;2023-12-14T00:52:39;97497.03;;;6.08;96.46
81057;BME280;70563;50.084;14.468;2023-12-14T00:55:05;97495.41;;;6.07;96.42
81057;BME280;70563;50.084;14.468;2023-12-14T00:57:30;97500.91;;;6.12;96.61
81057;BME280;70563;50.084;14.468;2023-12-14T00:59:56;97507.78;;;6.13;95.60
81057;BME280;70563;50.084;14.468;2023-12-14T01:02:21;97507.69;;;6.07;95.78
81057;BME280;70563;50.084;14.468;2023-12-14T01:04:46;97515.16;;;6.24;95.21
81057;BME280;70563;50.084;14.468;2023-12-14T01:07:12;97514.16;;;6.25;94.99
81057;BME280;70563;50.084;14.468;2023-12-14T01:09:37;97519.41;;;6.25;95.72
81057;BME280;70563;50.084;14.468;2023-12-14T01:12:03;97516.78;;;6.40;94.27
81057;BME280;70563;50.084;14.468;2023-12-14T01:14:28;97522.13;;;6.17;95.17
81057;BME280;70563;50.084;14.468;2023-12-14T01:16:53;97527.84;;;6.06;95.69
81057;BME280;70563;50.084;14.468;2023-12-14T01:19:19;97528.06;;;6.05;96.00
81057;BME280;70563;50.084;14.468;2023-12-14T01:21:44;97530.13;;;6.09;96.19
81057;BME280;70563;50.084;14.468;2023-12-14T01:24:09;97529.09;;;6.25;96.25
81057;BME280;70563;50.084;14.468;2023-12-14T01:26:35;97530.19;;;6.31;95.55
81057;BME280;70563;50.084;14.468;2023-12-14T01:29:01;97537.59;;;6.27;95.16
81057;BME280;70563;50.084;14.468;2023-12-14T01:31:26;97539.66;;;6.32;94.76
81057;BME280;70563;50.084;14.468;2023-12-14T01:33:52;97549.00;;;6.19;94.73
81057;BME280;70563;50.084;14.468;2023-12-14T01:36:35;97551.34;;;5.99;96.08
81057;BME280;70563;50.084;14.468;2023-12-14T01:39:01;97548.19;;;6.04;96.32
81057;BME280;70563;50.084;14.468;2023-12-14T01:41:26;97547.91;;;5.99;95.67
81057;BME280;70563;50.084;14.468;2023-12-14T01:43:51;97547.97;;;5.91;96.83
81057;BME280;70563;50.084;14.468;2023-12-14T01:46:16;97547.91;;;5.99;96.89
81057;BME280;70563;50.084;14.468;2023-12-14T01:48:42;97555.34;;;6.10;96.34
81057;BME280;70563;50.084;14.468;2023-12-14T01:51:07;97556.13;;;6.11;96.40
81057;BME280;70563;50.084;14.468;2023-12-14T01:53:33;97563.72;;;6.20;96.11
81057;BME280;70563;50.084;14.468;2023-12-14T01:55:58;97560.72;;;6.23;95.47
81057;BME280;70563;50.084;14.468;2023-12-14T01:58:24;97566.13;;;6.37;94.46
81057;BME280;70563;50.084;14.468;2023-12-14T02:01:04;97570.53;;;6.51;93.07
81057;BME280;70563;50.084;14.468;2023-12-14T02:03:32;97570.72;;;6.49;93.15
81057;BME280;70563;50.084;14.468;2023-12-14T02:05:57;97568.94;;;6.20;94.20
81057;BME280;70563;50.084;14.468;2023-12-14T02:08:24;97572.13;;;6.16;94.55
81057;BME280;70563;50.084;14.468;2023-12-14T02:10:49;97574.69;;;6.09;94.88
81057;BME280;70563;50.084;14.468;2023-12-14T02:13:14;97576.19;;;6.18;96.39
81057;BME280;70563;50.084;14.468;2023-12-14T02:15:40;97583.69;;;6.21;96.22
81057;BME280;70563;50.084;14.468;2023-12-14T02:18:05;97583.13;;;6.26;95.26
81057;BME280;70563;50.084;14.468;2023-12-14T02:20:30;97584.78;;;6.27;95.55
81057;BME280;70563;50.084;14.468;2023-12-14T02:22:56;97595.16;;;6.20;95.44
81057;BME280;70563;50.084;14.468;2023-12-14T02:25:23;97595.06;;;6.28;96.01
81057;BME280;70563;50.084;14.468;2023-12-14T02:27:49;97602.19;;;6.35;95.62
81057;BME280;70563;50.084;14.468;2023-12-14T02:30:15;97596.94;;;6.35;95.29
81057;BME280;70563;50.084;14.468;2023-12-14T02:32:41;97600.56;;;6.34;95.32
81057;BME280;70563;50.084;14.468;2023-12-14T02:35:07;97595.91;;;6.14;95.77
81057;BME280;70563;50.084;14.468;2023-12-14T02:37:33;97597.06;;;6.26;95.45
81057;BME280;70563;50.084;14.468;2023-12-14T02:40:00;97605.38;;;6.30;95.53
81057;BME280;70563;50.084;14.468;2023-12-14T02:42:26;97602.28;;;6.41;95.02
81057;BME280;70563;50.084;14.468;2023-12-14T02:44:51;97607.91;;;6.38;94.67
81057;BME280;70563;50.084;14.468;2023-12-14T02:47:17;97608.19;;;6.14;95.07
81057;BME280;70563;50.084;14.468;2023-12-14T02:49:43;97608.19;;;6.28;94.23
81057;BME280;70563;50.084;14.468;2023-12-14T02:52:09;97608.63;;;6.32;94.05
81057;BME280;70563;50.084;14.468;2023-12-14T02:54:34;97608.81;;;6.16;94.79
81057;BME280;70563;50.084;14.468;2023-12-14T02:56:59;97608.38;;;6.12;95.48
81057;BME280;70563;50.084;14.468;2023-12-14T02:59:25;97601.69;;;6.24;94.74
81057;BME280;70563;50.084;14.468;2023-12-14T03:01:50;97614.16;;;6.22;95.30
81057;BME280;70563;50.084;14.468;2023-12-14T03:04:15;97622.56;;;6.03;95.59
81057;BME280;70563;50.084;14.468;2023-12-14T03:06:41;97617.03;;;5.98;96.03
81057;BME280;70563;50.084;14.468;2023-12-14T03:09:06;97619.72;;;5.90;96.78
81057;BME280;70563;50.084;14.468;2023-12-14T03:11:31;97624.16;;;5.89;97.30
81057;BME280;70563;50.084;14.468;2023-12-14T03:13:57;97629.00;;;6.00;96.24
81057;BME280;70563;50.084;14.468;2023-12-14T03:16:22;97639.06;;;5.89;97.35
81057;BME280;70563;50.084;14.468;2023-12-14T03:18:48;97635.50;;;5.82;97.31
81057;BME280;70563;50.084;14.468;2023-12-14T03:21:17;97635.31;;;5.68;98.20
81057;BME280;70563;50.084;14.468;2023-12-14T03:23:43;97633.50;;;5.69;99.07
81057;BME280;70563;50.084;14.468;2023-12-14T03:26:08;97628.47;;;5.82;96.99
81057;BME280;70563;50.084;14.468;2023-12-14T03:28:34;97636.44;;;5.89;97.97
81057;BME280;70563;50.084;14.468;2023-12-14T03:31:00;97641.16;;;5.93;96.16
81057;BME280;70563;50.084;14.468;2023-12-14T03:33:25;97641.97;;;5.94;96.40
81057;BME280;70563;50.084;14.468;2023-12-14T03:35:50;97649.25;;;5.84;96.45
81057;BME280;70563;50.084;14.468;2023-12-14T03:38:16;97656.19;;;5.76;97.69
81057;BME280;70563;50.084;14.468;2023-12-14T03:40:41;97645.91;;;5.90;97.67
81057;BME280;70563;50.084;14.468;2023-12-14T03:43:06;97651.09;;;5.98;97.56
81057;BME280;70563;50.084;14.468;2023-12-14T03:45:32;97655.41;;;5.91;96.41
81057;BME280;70563;50.084;14.468;2023-12-14T03:47:57;97658.00;;;5.91;97.19
81057;BME280;70563;50.084;14.468;2023-12-14T03:50:23;97648.03;;;5.94;96.57
81057;BME280;70563;50.084;14.468;2023-12-14T03:52:48;97656.09;;;5.93;95.97
81057;BME280;70563;50.084;14.468;2023-12-14T03:55:14;97655.19;;;5.77;97.14
81057;BME280;70563;50.084;14.468;2023-12-14T03:57:42;97660.31;;;5.94;96.63
81057;BME280;70563;50.084;14.468;2023-12-14T04:00:11;97656.75;;;5.87;96.43
81057;BME280;70563;50.084;14.468;2023-12-14T04:02:38;97663.53;;;5.81;96.49
81057;BME280;70563;50.084;14.468;2023-12-14T04:05:04;97674.47;;;5.85;96.90
81057;BME280;70563;50.084;14.468;2023-12-14T04:07:29;97670.91;;;6.00;96.60
81057;BME280;70563;50.084;14.468;2023-12-14T04:09:54;97672.47;;;5.87;96.23
81057;BME280;70563;50.084;14.468;2023-12-14T04:12:20;97676.31;;;5.99;95.53
81057;BME280;70563;50.084;14.468;2023-12-14T04:14:46;97672.69;;;6.00;95.91
81057;BME280;70563;50.084;14.468;2023-12-14T04:17:11;97676.31;;;5.99;96.02
81057;BME280;70563;50.084;14.468;2023-12-14T04:19:40;97687.72;;;6.06;95.09
81057;BME280;70563;50.084;14.468;2023-12-14T04:22:06;97684.38;;;6.12;93.78
81057;BME280;70563;50.084;14.468;2023-12-14T04:24:31;97696.22;;;6.08;94.01
81057;BME280;70563;50.084;14.468;2023-12-14T04:26:58;97689.94;;;5.94;94.53
81057;BME280;70563;50.084;14.468;2023-12-14T04:29:23;97707.47;;;5.94;94.52
81057;BME280;70563;50.084;14.468;2023-12-14T04:31:48;97706.31;;;5.96;95.01
81057;BME280;70563;50.084;14.468;2023-12-14T04:34:14;97720.25;;;5.97;94.09
81057;BME280;70563;50.084;14.468;2023-12-14T04:36:42;97715.53;;;5.92;94.91
81057;BME280;70563;50.084;14.468;2023-12-14T04:39:07;97720.09;;;5.90;94.63
81057;BME280;70563;50.084;14.468;2023-12-14T04:41:33;97717.44;;;5.75;95.11
81057;BME280;70563;50.084;14.468;2023-12-14T04:43:58;97725.84;;;5.86;94.98
81057;BME280;70563;50.084;14.468;2023-12-14T04:46:23;97728.81;;;5.83;94.52
81057;BME280;70563;50.084;14.468;2023-12-14T04:48:49;97724.06;;;5.86;95.26
81057;BME280;70563;50.084;14.468;2023-12-14T04:51:14;97725.59;;;5.58;95.88
81057;BME280;70563;50.084;14.468;2023-12-14T04:53:40;97738.50;;;5.59;95.95
81057;BME280;70563;50.084;14.468;2023-12-14T04:56:09;97737.56;;;5.52;96.15
81057;BME280;70563;50.084;14.468;2023-12-14T04:58:35;97744.22;;;5.40;96.98
81057;BME280;70563;50.084;14.468;2023-12-14T05:01:00;97746.66;;;5.41;97.25
81057;BME280;70563;50.084;14.468;2023-12-14T05:03:26;97750.91;;;5.42;97.36
81057;BME280;70563;50.084;14.468;2023-12-14T05:05:51;97756.03;;;5.36;97.71
81057;BME280;70563;50.084;14.468;2023-12-14T05:08:16;97768.44;;;5.34;97.40
81057;BME280;70563;50.084;14.468;2023-12-14T05:10:42;97764.53;;;5.29;97.90
81057;BME280;70563;50.084;14.468;2023-12-14T05:13:07;97765.22;;;5.32;97.45
81057;BME280;70563;50.084;14.468;2023-12-14T05:15:33;97773.72;;;5.25;98.26
81057;BME280;70563;50.084;14.468;2023-12-14T05:17:59;97767.56;;;5.18;98.82
81057;BME280;70563;50.084;14.468;2023-12-14T05:20:24;97777.34;;;5.24;98.96
81057;BME280;70563;50.084;14.468;2023-12-14T05:22:50;97788.28;;;5.28;99.18
81057;BME280;70563;50.084;14.468;2023-12-14T05:25:15;97782.84;;;5.38;98.27
81057;BME280;70563;50.084;14.468;2023-12-14T05:27:40;97787.81;;;5.24;98.41
81057;BME280;70563;50.084;14.468;2023-12-14T05:30:07;97790.16;;;5.11;97.73
81057;BME280;70563;50.084;14.468;2023-12-14T05:32:33;97790.38;;;5.01;98.18
81057;BME280;70563;50.084;14.468;2023-12-14T05:34:58;97789.56;;;5.01;98.90
81057;BME280;70563;50.084;14.468;2023-12-14T05:37:25;97794.47;;;4.96;98.25
81057;BME280;70563;50.084;14.468;2023-12-14T05:39:50;97796.94;;;4.89;98.56
81057;BME280;70563;50.084;14.468;2023-12-14T05:42:16;97809.25;;;4.81;98.94
81057;BME280;70563;50.084;14.468;2023-12-14T05:44:42;97813.66;;;4.80;98.87
81057;BME280;70563;50.084;14.468;2023-12-14T05:47:09;97819.38;;;4.84;98.97
81057;BME280;70563;50.084;14.468;2023-12-14T05:49:34;97825.94;;;4.80;99.08
81057;BME280;70563;50.084;14.468;2023-12-14T05:52:00;97837.03;;;4.73;99.54
81057;BME280;70563;50.084;14.468;2023-12-14T05:54:25;97840.44;;;4.82;99.92
81057;BME280;70563;50.084;14.468;2023-12-14T05:56:51;97842.44;;;4.80;100.00
81057;BME280;70563;50.084;14.468;2023-12-14T05:59:16;97842.09;;;4.83;100.00
81057;BME280;70563;50.084;14.468;2023-12-14T06:01:41;97853.72;;;4.81;100.00
81057;BME280;70563;50.084;14.468;2023-12-14T06:04:08;97858.94;;;4.89;100.00
81057;BME280;70563;50.084;14.468;2023-12-14T06:06:33;97865.13;;;4.88;100.00
81057;BME280;70563;50.084;14.468;2023-12-14T06:08:59;97863.28;;;4.96;100.00
81057;BME280;70563;50.084;14.468;2023-12-14T06:11:24;97864.44;;;5.10;100.00
81057;BME280;70563;50.084;14.468;2023-12-14T06:13:49;97867.38;;;5.07;99.57
81057;BME280;70563;50.084;14.468;2023-12-14T06:16:15;97871.13;;;5.04;99.70
81057;BME280;70563;50.084;14.468;2023-12-14T06:18:40;97882.56;;;5.12;99.79
81057;BME280;70563;50.084;14.468;2023-12-14T06:21:08;97881.75;;;5.11;100.00
81057;BME280;70563;50.084;14.468;2023-12-14T06:23:35;97888.31;;;5.07;99.76
81057;BME280;70563;50.084;14.468;2023-12-14T06:26:02;97898.28;;;5.12;99.56
81057;BME280;70563;50.084;14.468;2023-12-14T06:28:29;97900.88;;;5.12;99.55
81057;BME280;70563;50.084;14.468;2023-12-14T06:30:56;97896.13;;;5.15;100.00
81057;BME280;70563;50.084;14.468;2023-12-14T06:33:21;97896.13;;;5.15;99.11
81057;BME280;70563;50.084;14.468;2023-12-14T06:35:47;97901.38;;;5.15;99.57
81057;BME280;70563;50.084;14.468;2023-12-14T06:38:13;97894.16;;;5.17;98.47
81057;BME280;70563;50.084;14.468;2023-12-14T06:40:38;97907.44;;;4.99;98.55
81057;BME280;70563;50.084;14.468;2023-12-14T06:43:07;97912.56;;;4.76;98.91
81057;BME280;70563;50.084;14.468;2023-12-14T06:45:32;97921.41;;;4.67;100.00
81057;BME280;70563;50.084;14.468;2023-12-14T06:47:57;97918.13;;;4.65;100.00
81057;BME280;70563;50.084;14.468;2023-12-14T06:50:23;97922.72;;;4.71;100.00
81057;BME280;70563;50.084;14.468;2023-12-14T06:52:48;97922.34;;;4.74;100.00
81057;BME280;70563;50.084;14.468;2023-12-14T06:55:13;97928.75;;;4.80;100.00
81057;BME280;70563;50.084;14.468;2023-12-14T06:57:42;97936.25;;;4.83;99.37
81057;BME280;70563;50.084;14.468;2023-12-14T07:00:08;97936.25;;;4.83;98.79
81057;BME280;70563;50.084;14.468;2023-12-14T07:02:34;97938.03;;;4.91;98.07
81057;BME280;70563;50.084;14.468;2023-12-14T07:05:00;97941.31;;;4.93;98.33
81057;BME280;70563;50.084;14.468;2023-12-14T07:07:25;97945.56;;;4.94;97.80
81057;BME280;70563;50.084;14.468;2023-12-14T07:09:50;97949.47;;;5.06;97.40
81057;BME280;70563;50.084;14.468;2023-12-14T07:12:16;97951.09;;;5.07;97.34
81057;BME280;70563;50.084;14.468;2023-12-14T07:14:42;97960.25;;;5.19;97.74
81057;BME280;70563;50.084;14.468;2023-12-14T07:17:07;97958.13;;;5.15;96.38
81057;BME280;70563;50.084;14.468;2023-12-14T07:19:33;97961.88;;;5.12;96.15
81057;BME280;70563;50.084;14.468;2023-12-14T07:21:58;97963.19;;;5.16;96.82
81057;BME280;70563;50.084;14.468;2023-12-14T07:24:23;97968.09;;;5.19;96.36
81057;BME280;70563;50.084;14.468;2023-12-14T07:26:49;97969.41;;;5.23;95.50
81057;BME280;70563;50.084;14.468;2023-12-14T07:29:15;97976.28;;;5.24;95.36
81057;BME280;70563;50.084;14.468;2023-12-14T07:31:40;97993.97;;;5.22;95.51
81057;BME280;70563;50.084;14.468;2023-12-14T07:34:06;97991.47;;;5.29;95.44
81057;BME280;70563;50.084;14.468;2023-12-14T07:36:31;97989.06;;;5.11;96.29
81057;BME280;70563;50.084;14.468;2023-12-14T07:38:56;97987.91;;;5.06;96.30
81057;BME280;70563;50.084;14.468;2023-12-14T07:41:22;97996.41;;;5.08;96.51
81057;BME280;70563;50.084;14.468;2023-12-14T07:43:54;98003.63;;;5.06;96.57
81057;BME280;70563;50.084;14.468;2023-12-14T07:46:20;98002.47;;;5.08;97.03
81057;BME280;70563;50.084;14.468;2023-12-14T07:48:45;98004.06;;;5.17;96.28
81057;BME280;70563;50.084;14.468;2023-12-14T07:51:10;98013.25;;;5.13;96.32
81057;BME280;70563;50.084;14.468;2023-12-14T07:53:36;98013.41;;;5.28;96.01
81057;BME280;70563;50.084;14.468;2023-12-14T07:56:02;98026.19;;;5.23;95.06
81057;BME280;70563;50.084;14.468;2023-12-14T07:58:28;98019.47;;;5.20;95.01
81057;BME280;70563;50.084;14.468;2023-12-14T08:00:53;98025.81;;;5.42;94.36
81057;BME280;70563;50.084;14.468;2023-12-14T08:03:18;98028.25;;;5.44;93.89
81057;BME280;70563;50.084;14.468;2023-12-14T08:05:44;98036.09;;;5.44;94.00
81057;BME280;70563;50.084;14.468;2023-12-14T08:08:09;98034.78;;;5.48;93.34
81057;BME280;70563;50.084;14.468;2023-12-14T08:10:34;98042.28;;;5.67;94.38
81057;BME280;70563;50.084;14.468;2023-12-14T08:13:00;98047.03;;;5.72;93.29
81057;BME280;70563;50.084;14.468;2023-12-14T08:15:25;98053.41;;;5.69;92.60
81057;BME280;70563;50.084;14.468;2023-12-14T08:17:51;98064.84;;;5.76;92.72
81057;BME280;70563;50.084;14.468;2023-12-14T08:20:16;98058.13;;;5.82;91.07
81057;BME280;70563;50.084;14.468;2023-12-14T08:22:41;98063.84;;;5.86;91.75
81057;BME280;70563;50.084;14.468;2023-12-14T08:25:14;98075.34;;;5.93;90.86
81057;BME280;70563;50.084;14.468;2023-12-14T08:27:40;98071.38;;;5.97;90.38
81057;BME280;70563;50.084;14.468;2023-12-14T08:30:06;98074.94;;;6.12;91.26
81057;BME280;70563;50.084;14.468;2023-12-14T08:32:31;98085.88;;;6.16;90.67
81057;BME280;70563;50.084;14.468;2023-12-14T08:34:56;98077.00;;;6.25;89.71
81057;BME280;70563;50.084;14.468;2023-12-14T08:37:22;98081.41;;;6.33;90.13
81057;BME280;70563;50.084;14.468;2023-12-14T08:39:47;98085.03;;;6.32;88.50
81057;BME280;70563;50.084;14.468;2023-12-14T08:42:12;98091.19;;;6.39;89.19
81057;BME280;70563;50.084;14.468;2023-12-14T08:44:39;98095.56;;;6.54;88.29
81057;BME280;70563;50.084;14.468;2023-12-14T08:47:05;98095.34;;;6.64;87.75
81057;BME280;70563;50.084;14.468;2023-12-14T08:49:31;98097.63;;;6.67;86.84
81057;BME280;70563;50.084;14.468;2023-12-14T08:51:56;98113.66;;;6.72;86.60
81057;BME280;70563;50.084;14.468;2023-12-14T08:54:21;98108.66;;;6.86;87.05
81057;BME280;70563;50.084;14.468;2023-12-14T08:56:47;98109.28;;;6.96;85.40
81057;BME280;70563;50.084;14.468;2023-12-14T08:59:12;98112.75;;;7.11;85.12
81057;BME280;70563;50.084;14.468;2023-12-14T09:01:38;98118.06;;;7.03;85.42
81057;BME280;70563;50.084;14.468;2023-12-14T09:04:04;98124.66;;;6.99;85.33
81057;BME280;70563;50.084;14.468;2023-12-14T09:06:29;98119.34;;;6.84;85.85
81057;BME280;70563;50.084;14.468;2023-12-14T09:08:54;98127.72;;;6.79;86.15
81057;BME280;70563;50.084;14.468;2023-12-14T09:11:20;98123.13;;;6.82;85.82
81057;BME280;70563;50.084;14.468;2023-12-14T09:13:45;98122.44;;;6.88;85.54
81057;BME280;70563;50.084;14.468;2023-12-14T09:16:10;98137.47;;;6.94;85.63
81057;BME280;70563;50.084;14.468;2023-12-14T09:18:36;98136.22;;;7.36;85.69
81057;BME280;70563;50.084;14.468;2023-12-14T09:21:01;98144.56;;;7.77;82.38
81057;BME280;70563;50.084;14.468;2023-12-14T09:23:27;98150.31;;;8.10;81.31
81057;BME280;70563;50.084;14.468;2023-12-14T09:25:52;98150.25;;;8.18;80.79
81057;BME280;70563;50.084;14.468;2023-12-14T09:28:17;98146.72;;;8.41;78.81
81057;BME280;70563;50.084;14.468;2023-12-14T09:30:43;98157.69;;;8.59;77.59
81057;BME280;70563;50.084;14.468;2023-12-14T09:33:09;98156.41;;;8.70;77.01
81057;BME280;70563;50.084;14.468;2023-12-14T09:35:35;98158.50;;;8.74;77.19
81057;BME280;70563;50.084;14.468;2023-12-14T09:38:05;98155.88;;;9.32;75.55
81057;BME280;70563;50.084;14.468;2023-12-14T09:40:31;98165.41;;;9.76;73.95
81057;BME280;70563;50.084;14.468;2023-12-14T09:42:56;98154.66;;;9.77;73.16
81057;BME280;70563;50.084;14.468;2023-12-14T09:45:28;98161.81;;;9.62;72.94
81057;BME280;70563;50.084;14.468;2023-12-14T09:47:54;98165.56;;;9.74;73.33
81057;BME280;70563;50.084;14.468;2023-12-14T09:50:21;98186.69;;;9.53;73.05
81057;BME280;70563;50.084;14.468;2023-12-14T09:52:48;98176.34;;;9.51;74.01
81057;BME280;70563;50.084;14.468;2023-12-14T09:55:15;98192.19;;;8.64;76.44
81057;BME280;70563;50.084;14.468;2023-12-14T09:57:40;98196.81;;;8.62;76.84
81057;BME280;70563;50.084;14.468;2023-12-14T10:00:06;98191.72;;;8.46;78.37
81057;BME280;70563;50.084;14.468;2023-12-14T10:02:36;98193.31;;;8.32;79.87
81057;BME280;70563;50.084;14.468;2023-12-14T10:05:02;98200.56;;;8.15;80.42
81057;BME280;70563;50.084;14.468;2023-12-14T10:07:30;98200.63;;;7.92;81.42
81057;BME280;70563;50.084;14.468;2023-12-14T10:10:09;98194.03;;;8.11;81.83
81057;BME280;70563;50.084;14.468;2023-12-14T10:12:50;98199.53;;;8.01;81.22
81057;BME280;70563;50.084;14.468;2023-12-14T10:15:16;98194.69;;;8.13;81.55
81057;BME280;70563;50.084;14.468;2023-12-14T10:17:41;98199.09;;;7.98;82.17
81057;BME280;70563;50.084;14.468;2023-12-14T10:20:07;98197.81;;;7.94;82.83
81057;BME280;70563;50.084;14.468;2023-12-14T10:22:34;98194.06;;;7.73;82.69
81057;BME280;70563;50.084;14.468;2023-12-14T10:25:02;98198.25;;;7.83;82.76
81057;BME280;70563;50.084;14.468;2023-12-14T10:27:30;98197.59;;;7.80;82.30
81057;BME280;70563;50.084;14.468;2023-12-14T10:29:56;98207.34;;;7.95;82.61
81057;BME280;70563;50.084;14.468;2023-12-14T10:32:23;98213.28;;;7.89;83.17
81057;BME280;70563;50.084;14.468;2023-12-14T10:34:48;98212.34;;;8.04;82.30
81057;BME280;70563;50.084;14.468;2023-12-14T10:37:14;98214.22;;;8.34;81.06
81057;BME280;70563;50.084;14.468;2023-12-14T10:39:42;98215.69;;;8.51;80.16
81057;BME280;70563;50.084;14.468;2023-12-14T10:42:08;98223.31;;;8.61;79.27
81057;BME280;70563;50.084;14.468;2023-12-14T10:44:36;98228.78;;;8.36;79.71
81057;BME280;70563;50.084;14.468;2023-12-14T10:47:02;98228.19;;;8.34;79.92
81057;BME280;70563;50.084;14.468;2023-12-14T10:49:29;98237.53;;;8.37;79.38
81057;BME280;70563;50.084;14.468;2023-12-14T10:51:57;98235.50;;;8.24;80.04
81057;BME280;70563;50.084;14.468;2023-12-14T10:54:24;98238.09;;;8.62;78.63
81057;BME280;70563;50.084;14.468;2023-12-14T10:56:54;98237.56;;;8.66;77.85
81057;BME280;70563;50.084;14.468;2023-12-14T10:59:21;98248.81;;;8.75;77.81
81057;BME280;70563;50.084;14.468;2023-12-14T11:01:54;98247.47;;;8.64;78.70
81057;BME280;70563;50.084;14.468;2023-12-14T11:04:23;98255.78;;;8.53;78.18
81057;BME280;70563;50.084;14.468;2023-12-14T11:06:49;98255.78;;;8.53;78.82
81057;BME280;70563;50.084;14.468;2023-12-14T11:09:17;98261.22;;;8.37;79.11
81057;BME280;70563;50.084;14.468;2023-12-14T11:14:19;98258.16;;;8.63;77.40
81057;BME280;70563;50.084;14.468;2023-12-14T11:16:44;98265.50;;;8.82;77.23
81057;BME280;70563;50.084;14.468;2023-12-14T11:24:34;98270.59;;;8.69;76.63
81057;BME280;70563;50.084;14.468;2023-12-14T11:27:04;98267.97;;;8.69;76.44
81057;BME280;70563;50.084;14.468;2023-12-14T11:29:30;98269.78;;;8.83;76.18
81057;BME280;70563;50.084;14.468;2023-12-14T11:31:55;98275.59;;;8.78;76.24
81057;BME280;70563;50.084;14.468;2023-12-14T11:34:24;98280.47;;;8.52;76.75
81057;BME280;70563;50.084;14.468;2023-12-14T11:36:49;98273.66;;;8.43;78.40
81057;BME280;70563;50.084;14.468;2023-12-14T11:39:15;98290.44;;;8.42;79.12
81057;BME280;70563;50.084;14.468;2023-12-14T11:41:40;98284.94;;;8.51;77.38
81057;BME280;70563;50.084;14.468;2023-12-14T11:44:05;98294.44;;;8.67;76.24
81057;BME280;70563;50.084;14.468;2023-12-14T11:46:32;98295.53;;;8.58;77.68
81057;BME280;70563;50.084;14.468;2023-12-14T11:48:57;98297.97;;;8.45;77.82
81057;BME280;70563;50.084;14.468;2023-12-14T11:51:23;98299.44;;;8.47;77.30
81057;BME280;70563;50.084;14.468;2023-12-14T11:53:51;98297.09;;;8.52;77.50
81057;BME280;70563;50.084;14.468;2023-12-14T11:56:20;98298.09;;;8.51;77.03
81057;BME280;70563;50.084;14.468;2023-12-14T11:58:48;98296.91;;;8.31;77.45
81057;BME280;70563;50.084;14.468;2023-12-14T12:01:15;98306.88;;;8.21;78.13
81057;BME280;70563;50.084;14.468;2023-12-14T12:03:41;98298.06;;;8.14;78.39
81057;BME280;70563;50.084;14.468;2023-12-14T12:06:22;98300.94;;;8.04;78.78
81057;BME280;70563;50.084;14.468;2023-12-14T12:08:48;98304.25;;;7.75;78.82
81057;BME280;70563;50.084;14.468;2023-12-14T12:11:24;98309.28;;;7.85;78.73
81057;BME280;70563;50.084;14.468;2023-12-14T12:13:56;98312.66;;;7.93;79.28
81057;BME280;70563;50.084;14.468;2023-12-14T12:16:22;98315.53;;;7.84;79.13
81057;BME280;70563;50.084;14.468;2023-12-14T12:18:48;98311.03;;;7.69;79.65
81057;BME280;70563;50.084;14.468;2023-12-14T12:21:13;98320.25;;;7.65;79.37
81057;BME280;70563;50.084;14.468;2023-12-14T12:23:39;98323.69;;;7.66;79.59
81057;BME280;70563;50.084;14.468;2023-12-14T12:26:05;98330.72;;;7.73;78.84
81057;BME280;70563;50.084;14.468;2023-12-14T12:28:31;98326.84;;;7.61;78.94
81057;BME280;70563;50.084;14.468;2023-12-14T12:30:57;98335.50;;;7.70;78.98
81057;BME280;70563;50.084;14.468;2023-12-14T12:33:23;98332.06;;;7.69;79.18
81057;BME280;70563;50.084;14.468;2023-12-14T12:35:48;98326.19;;;7.59;79.13
81057;BME280;70563;50.084;14.468;2023-12-14T12:38:14;98334.44;;;7.56;79.43
81057;BME280;70563;50.084;14.468;2023-12-14T12:40:41;98334.78;;;7.53;79.59
81057;BME280;70563;50.084;14.468;2023-12-14T12:43:06;98336.41;;;7.54;79.63
81057;BME280;70563;50.084;14.468;2023-12-14T12:45:32;98348.19;;;7.58;80.04
81057;BME280;70563;50.084;14.468;2023-12-14T12:47:57;98344.25;;;7.62;80.37
81057;BME280;70563;50.084;14.468;2023-12-14T12:50:23;98348.09;;;7.51;79.89
81057;BME280;70563;50.084;14.468;2023-12-14T12:52:48;98349.22;;;7.18;80.99
81057;BME280;70563;50.084;14.468;2023-12-14T12:55:15;98352.88;;;7.48;80.26
81057;BME280;70563;50.084;14.468;2023-12-14T12:57:40;98350.56;;;7.45;80.71
81057;BME280;70563;50.084;14.468;2023-12-14T13:00:09;98361.66;;;7.24;80.69
81057;BME280;70563;50.084;14.468;2023-12-14T13:02:39;98371.06;;;7.10;82.06